MSC Magnifica — 3FLO4 — position and weather

sailwx.info

Track history (hours):
 
Tides and Currents Weather Stations Pressure Air Temp Water Temp Dewpoint Dewpoint Depression Visibility Wind Speed Wind Dir Waves Ship Positions

MSC Magnifica

Last reported at 2017-Jul-22 18:30 UTC. Time now 2017-Jul-22 18:30 UTC.
Position N 55°25' E 012°39'.

Length 293 m; draft 8 m.

Type: Passenger vessel. MMSI: 352594000.

Date/timePositionNaut miles runAvg speedWind from/ knotsBaromVisibWave heightAir tempDewpointWater temp
2017-Jul-22 18:30N 55°25' E 012°39'4 8.4
2017-Jul-22 18:00N 55°29' E 012°41'4 8.1
2017-Jul-22 17:30N 55°33' E 012°42'3 6.8
2017-Jul-22 17:00N 55°37' E 012°42'4 7.3
2017-Jul-22 16:30N 55°40' E 012°41'3 6.9
2017-Jul-22 16:00N 55°43' E 012°38'0 0.0
2017-Jul-22 15:28N 55°43' E 012°38'0 0.0
2017-Jul-22 14:58N 55°43' E 012°38'0 0.0
2017-Jul-22 13:58N 55°43' E 012°38'0 0.0
2017-Jul-22 13:30N 55°43' E 012°38'0 0.0
2017-Jul-22 12:59N 55°43' E 012°38'0 0.0
2017-Jul-22 12:29N 55°43' E 012°38'0 0.0
2017-Jul-22 11:59N 55°43' E 012°38'0 0.0
2017-Jul-22 11:28N 55°43' E 012°38'0 0.0
2017-Jul-22 10:58N 55°43' E 012°38'0 0.0
2017-Jul-22 10:28N 55°43' E 012°38'0 0.0
2017-Jul-22 09:58N 55°43' E 012°38'0 0.0
2017-Jul-22 09:28N 55°43' E 012°38'0 0.0
2017-Jul-22 08:58N 55°43' E 012°38'0 0.0
2017-Jul-22 08:30N 55°43' E 012°38'0 0.0
2017-Jul-22 08:00N 55°43' E 012°38'0 0.0
2017-Jul-22 07:29N 55°43' E 012°38'0 0.0
2017-Jul-22 06:59N 55°43' E 012°38'0 0.1
2017-Jul-22 06:30N 55°43' E 012°38'3 6.2
2017-Jul-22 06:00N 55°46' E 012°41'815.3
2017-Jul-22 05:30N 55°53' E 012°44'815.1
2017-Jul-22 05:00N 56°00' E 012°40'714.7
2017-Jul-22 04:30N 56°06' E 012°33'815.2
2017-Jul-22 04:00N 56°11' E 012°21'815.5
2017-Jul-22 03:30N 56°15' E 012°10'2315.1
2017-Jul-22 01:59N 56°36' E 011°55'816.0
2017-Jul-22 01:30N 56°44' E 011°51'815.6
2017-Jul-22 01:00N 56°51' E 011°47'1116.0
2017-Jul-22 00:19N 57°02' E 011°40'516.1
2017-Jul-22 00:00N 57°06' E 011°37'815.8
2017-Jul-21 23:30N 57°14' E 011°32'815.7
2017-Jul-21 23:00N 57°21' E 011°27'815.6
2017-Jul-21 22:30N 57°28' E 011°21'816.0
2017-Jul-21 22:00N 57°34' E 011°11'815.8
2017-Jul-21 21:29N 57°40' E 010°59'815.6
2017-Jul-21 21:00N 57°45' E 010°49'815.2
2017-Jul-21 20:28N 57°47' E 010°34'816.5
2017-Jul-21 19:59N 57°46' E 010°20'816.3
2017-Jul-21 19:30N 57°46' E 010°05'8116.1
2017-Jul-21 14:30N 57°42' E 007°34'815.9
2017-Jul-21 14:00N 57°42' E 007°20'1016.0
2017-Jul-21 13:23N 57°42' E 007°01'615.9
2017-Jul-21 13:00N 57°42' E 006°50'816.0
2017-Jul-21 12:30N 57°43' E 006°35'916.2
2017-Jul-21 11:55N 57°48' E 006°21'716.1
2017-Jul-21 11:29N 57°53' E 006°11'816.3
2017-Jul-21 10:59N 57°58' E 005°60'816.3
2017-Jul-21 10:29N 58°04' E 005°48'2316.2
2017-Jul-21 09:04N 58°19' E 005°15'316.2
2017-Jul-21 08:52N 58°21' E 005°11'616.4
2017-Jul-21 08:30N 58°26' E 005°03'816.1
2017-Jul-21 08:00N 58°31' E 004°52'816.3
2017-Jul-21 07:30N 58°37' E 004°42'916.4
2017-Jul-21 06:59N 58°43' E 004°30'11915.7
2017-Jul-20 23:26N 60°42' E 004°20'716.5
2017-Jul-20 23:00N 60°48' E 004°25'814.8
2017-Jul-20 22:30N 60°52' E 004°38'815.1
2017-Jul-20 22:00N 60°59' E 004°45'918.9
2017-Jul-20 21:30N 61°04' E 005°01'917.6
2017-Jul-20 21:01N 61°05' E 005°19'917.0
2017-Jul-20 20:30N 61°06' E 005°36'918.2
2017-Jul-20 20:00N 61°09' E 005°54'917.9
2017-Jul-20 19:30N 61°07' E 006°13'917.3
2017-Jul-20 18:59N 61°07' E 006°31'714.8
2017-Jul-20 18:30N 61°10' E 006°44'917.2
2017-Jul-20 18:00N 61°05' E 006°59'816.9
2017-Jul-20 17:30N 60°58' E 007°06'611.2
2017-Jul-20 17:00N 60°52' E 007°08'1 1.3
2017-Jul-20 16:29N 60°52' E 007°07'0 0.0
2017-Jul-20 15:59N 60°52' E 007°07'0 0.0
2017-Jul-20 15:29N 60°52' E 007°07'0 0.0
2017-Jul-20 14:59N 60°52' E 007°07'0 0.0
2017-Jul-20 13:59N 60°52' E 007°07'0 0.0
2017-Jul-20 13:29N 60°52' E 007°07'0 0.0
2017-Jul-20 12:59N 60°52' E 007°07'0 0.0
2017-Jul-20 12:29N 60°52' E 007°07'0 0.0
2017-Jul-20 11:59N 60°52' E 007°07'0 0.0
2017-Jul-20 11:29N 60°52' E 007°07'0 0.0
2017-Jul-20 10:59N 60°52' E 007°07'0 0.0
2017-Jul-20 10:29N 60°52' E 007°07'0 0.0
2017-Jul-20 09:59N 60°52' E 007°07'0 0.0
2017-Jul-20 09:29N 60°52' E 007°07'0 0.0
2017-Jul-20 08:59N 60°52' E 007°07'0 0.0
2017-Jul-20 08:29N 60°52' E 007°07'0 0.0
2017-Jul-20 07:56N 60°52' E 007°07'0 0.0
2017-Jul-20 07:29N 60°52' E 007°07'0 0.0
2017-Jul-20 06:59N 60°52' E 007°07'0 0.0
2017-Jul-20 06:29N 60°52' E 007°07'0 0.0
2017-Jul-20 05:59N 60°52' E 007°07'1 1.3
2017-Jul-20 05:30N 60°52' E 007°08'510.9
2017-Jul-20 05:00N 60°58' E 007°06'816.5
2017-Jul-20 04:30N 61°05' E 006°60'815.9
2017-Jul-20 04:00N 61°10' E 006°46'713.2
2017-Jul-20 03:30N 61°08' E 006°33'815.8
2017-Jul-20 03:00N 61°07' E 006°18'816.6
2017-Jul-20 02:30N 61°08' E 006°01'916.6
2017-Jul-20 01:59N 61°07' E 005°43'817.0
2017-Jul-20 01:30N 61°04' E 005°27'816.1
2017-Jul-20 01:00N 61°06' E 005°11'815.8
2017-Jul-20 00:30N 61°12' E 005°00'714.1
2017-Jul-20 00:00N 61°15' E 004°47'917.4
2017-Jul-19 23:29N 61°15' E 004°28'1020.0
2017-Jul-19 23:00N 61°25' E 004°25'1020.0
2017-Jul-19 22:30N 61°35' E 004°26'1020.1
2017-Jul-19 22:00N 61°45' E 004°28'1020.3
2017-Jul-19 21:30N 61°54' E 004°36'1020.2
2017-Jul-19 21:00N 62°03' E 004°46'1020.2
2017-Jul-19 20:30N 62°12' E 004°58'1020.4
2017-Jul-19 20:00N 62°20' E 005°11'1020.3
2017-Jul-19 19:30N 62°26' E 005°28'1020.2
2017-Jul-19 18:59N 62°27' E 005°51'919.3
2017-Jul-19 18:30N 62°23' E 006°09'1020.2
2017-Jul-19 18:00N 62°25' E 006°31'1019.4
2017-Jul-19 17:29N 62°27' E 006°52'918.6
2017-Jul-19 17:00N 62°18' E 006°59'918.3
2017-Jul-19 16:30N 62°09' E 006°59'4 8.8
2017-Jul-19 16:00N 62°06' E 007°06'3 5.4
2017-Jul-19 15:30N 62°06' E 007°12'0 0.0
2017-Jul-19 14:59N 62°06' E 007°12'0 0.0
2017-Jul-19 14:29N 62°06' E 007°12'0 0.0
2017-Jul-19 13:59N 62°06' E 007°12'0 0.0
2017-Jul-19 13:29N 62°06' E 007°12'0 0.0
2017-Jul-19 13:00N 62°06' E 007°12'0 0.0
2017-Jul-19 12:30N 62°06' E 007°12'0 0.0
2017-Jul-19 12:00N 62°06' E 007°12'0 0.0
2017-Jul-19 11:29N 62°06' E 007°12'0 0.0
2017-Jul-19 11:00N 62°06' E 007°12'0 0.0
2017-Jul-19 10:30N 62°06' E 007°12'0 0.0
2017-Jul-19 10:00N 62°06' E 007°12'0 0.0
2017-Jul-19 09:30N 62°06' E 007°12'0 0.0
2017-Jul-19 09:00N 62°06' E 007°12'0 0.0
2017-Jul-19 08:28N 62°06' E 007°12'0 0.0
2017-Jul-19 07:59N 62°06' E 007°12'0 0.0
2017-Jul-19 07:30N 62°06' E 007°12'0 0.6
2017-Jul-19 07:00N 62°06' E 007°11'3 6.5
2017-Jul-19 06:30N 62°06' E 007°05'4 1.9
2017-Jul-19 04:12N 62°07' E 006°56'211.4
2017-Jul-19 03:59N 62°09' E 006°58'612.4
2017-Jul-19 03:30N 62°14' E 007°01'816.1
2017-Jul-19 03:00N 62°22' E 006°55'714.3
2017-Jul-19 02:30N 62°27' E 006°45'816.9
2017-Jul-19 02:00N 62°25' E 006°28'917.2
2017-Jul-19 01:30N 62°23' E 006°09'817.3
2017-Jul-19 01:00N 62°27' E 005°54'918.6
2017-Jul-19 00:30N 62°27' E 005°33'1019.4
2017-Jul-19 00:00N 62°22' E 005°16'1019.4
2017-Jul-18 23:30N 62°14' E 005°01'1019.2
2017-Jul-18 23:00N 62°06' E 004°51'1019.4
2017-Jul-18 22:30N 61°57' E 004°42'919.0
2017-Jul-18 22:00N 61°49' E 004°33'918.8
2017-Jul-18 21:30N 61°41' E 004°24'5416.9
2017-Jul-18 18:19N 60°47' E 004°18'619.2
2017-Jul-18 18:00N 60°46' E 004°31'918.4
2017-Jul-18 17:30N 60°42' E 004°48'815.7
2017-Jul-18 17:00N 60°35' E 004°54'918.2
2017-Jul-18 16:30N 60°27' E 005°02'612.7
2017-Jul-18 16:01N 60°24' E 005°13'3 4.8
2017-Jul-18 15:26N 60°23' E 005°18'0 0.0
2017-Jul-18 14:56N 60°23' E 005°18'0 0.0
2017-Jul-18 13:56N 60°23' E 005°18'0 0.0
2017-Jul-18 13:26N 60°23' E 005°18'0 0.0
2017-Jul-18 12:56N 60°23' E 005°18'0 0.0
2017-Jul-18 12:26N 60°23' E 005°18'0 0.0
2017-Jul-18 11:56N 60°23' E 005°18'0 0.0
2017-Jul-18 11:26N 60°23' E 005°18'0 0.0
2017-Jul-18 10:56N 60°23' E 005°18'0 0.0
2017-Jul-18 10:26N 60°23' E 005°18'0 0.0
2017-Jul-18 09:56N 60°23' E 005°18'0 0.0
2017-Jul-18 09:26N 60°23' E 005°18'0 0.0
2017-Jul-18 08:56N 60°23' E 005°18'0 0.0
2017-Jul-18 08:26N 60°23' E 005°18'0 0.0
2017-Jul-18 07:56N 60°23' E 005°18'0 0.3
2017-Jul-18 07:30N 60°24' E 005°18'4 7.7
2017-Jul-18 07:00N 60°23' E 005°10'815.6
2017-Jul-18 06:30N 60°29' E 004°59'917.6
2017-Jul-18 06:00N 60°37' E 004°53'816.1
2017-Jul-18 05:29N 60°44' E 004°44'612.6
2017-Jul-18 05:00N 60°42' E 004°32'816.2
2017-Jul-18 04:30N 60°35' E 004°25'11115.9
2017-Jul-17 21:33N 58°44' E 004°41'116.7
2017-Jul-17 21:30N 58°44' E 004°42'816.8
2017-Jul-17 21:00N 58°38' E 004°53'816.9
2017-Jul-17 20:30N 58°32' E 005°04'1017.0
2017-Jul-17 19:56N 58°25' E 005°17'717.0
2017-Jul-17 19:30N 58°20' E 005°27'817.1
2017-Jul-17 19:00N 58°14' E 005°39'917.3
2017-Jul-17 18:30N 58°08' E 005°51'917.5
2017-Jul-17 18:00N 58°02' E 006°04'917.3
2017-Jul-17 17:30N 57°57' E 006°16'917.3
2017-Jul-17 16:58N 57°51' E 006°29'816.6
2017-Jul-17 16:31N 57°47' E 006°41'816.4
2017-Jul-17 16:00N 57°46' E 006°56'917.1
2017-Jul-17 15:30N 57°45' E 007°13'917.5
2017-Jul-17 15:00N 57°45' E 007°29'918.1
2017-Jul-17 14:30N 57°45' E 007°46'917.9
2017-Jul-17 14:00N 57°45' E 008°03'7017.6
2017-Jul-17 10:02N 57°49' E 010°13'117.3
2017-Jul-17 09:59N 57°49' E 010°15'817.3
2017-Jul-17 09:29N 57°49' E 010°31'816.7
2017-Jul-17 09:00N 57°48' E 010°46'917.6
2017-Jul-17 08:31N 57°42' E 010°58'918.1
2017-Jul-17 07:59N 57°36' E 011°11'918.8
2017-Jul-17 07:30N 57°30' E 011°23'918.6
2017-Jul-17 07:00N 57°21' E 011°30'917.6
2017-Jul-17 06:31N 57°13' E 011°35'1018.4
2017-Jul-17 05:59N 57°04' E 011°42'11016.7
2017-Jul-16 23:24N 55°16' E 011°05'816.3
2017-Jul-16 22:55N 55°08' E 011°03'718.2
2017-Jul-16 22:30N 55°00' E 011°02'917.4
2017-Jul-16 22:00N 54°53' E 010°54'917.4
2017-Jul-16 21:30N 54°44' E 010°53'816.6
2017-Jul-16 21:00N 54°39' E 011°03'917.8
2017-Jul-16 20:30N 54°35' E 011°17'917.9
2017-Jul-16 20:00N 54°31' E 011°30'917.1
2017-Jul-16 19:30N 54°27' E 011°44'1416.5
2017-Jul-16 18:38N 54°18' E 012°03'7 0.5
2017-Jul-16 04:57N 54°11' E 012°06'1 2.5
2017-Jul-16 04:30N 54°10' E 012°06'5 9.4
2017-Jul-16 04:01N 54°14' E 012°03'610.7
2017-Jul-16 03:29N 54°19' E 011°59'510.7
2017-Jul-16 03:00N 54°24' E 011°55'4 8.0
2017-Jul-16 02:29N 54°26' E 012°01'6 8.7
2017-Jul-16 01:47N 54°28' E 012°11'2 8.5
2017-Jul-16 01:30N 54°31' E 012°12'4 8.6
2017-Jul-16 01:00N 54°35' E 012°13'12 8.7
2017-Jul-15 23:41N 54°44' E 012°25'2 8.8
2017-Jul-15 23:29N 54°46' E 012°27'9 8.8
2017-Jul-15 22:25N 54°53' E 012°37'4 8.3
2017-Jul-15 21:56N 54°57' E 012°39'4 8.7
2017-Jul-15 21:29N 55°01' E 012°39'4 8.6
2017-Jul-15 21:00N 55°05' E 012°39'4 8.6
2017-Jul-15 20:30N 55°09' E 012°38'4 8.4
2017-Jul-15 20:00N 55°13' E 012°38'4 8.4
2017-Jul-15 19:30N 55°17' E 012°38'4 8.6
2017-Jul-15 19:00N 55°22' E 012°38'4 8.5
2017-Jul-15 18:30N 55°26' E 012°39'4 8.6
2017-Jul-15 18:00N 55°30' E 012°42'4 7.9
2017-Jul-15 17:30N 55°34' E 012°42'4 7.4
2017-Jul-15 17:00N 55°38' E 012°42'510.4
2017-Jul-15 16:30N 55°43' E 012°41'2 4.0
2017-Jul-15 16:00N 55°43' E 012°38'0 0.0
2017-Jul-15 15:30N 55°43' E 012°38'0 0.0
2017-Jul-15 14:59N 55°43' E 012°38'0 0.0
2017-Jul-15 13:58N 55°43' E 012°38'0 0.0
2017-Jul-15 13:30N 55°43' E 012°38'0 0.0
2017-Jul-15 13:00N 55°43' E 012°38'0 0.0
2017-Jul-15 12:30N 55°43' E 012°38'0 0.0
2017-Jul-15 12:00N 55°43' E 012°38'0 0.0
2017-Jul-15 11:30N 55°43' E 012°38'0 0.0
2017-Jul-15 11:00N 55°43' E 012°38'0 0.0
2017-Jul-15 10:29N 55°43' E 012°38'0 0.0
2017-Jul-15 09:59N 55°43' E 012°38'0 0.0
2017-Jul-15 09:29N 55°43' E 012°38'0 0.0
2017-Jul-15 08:59N 55°43' E 012°38'0 0.0
2017-Jul-15 08:29N 55°43' E 012°38'0 0.0
2017-Jul-15 07:59N 55°43' E 012°38'0 0.0
2017-Jul-15 07:28N 55°43' E 012°38'0 0.0
2017-Jul-15 06:58N 55°43' E 012°38'0 0.0
2017-Jul-15 06:28N 55°43' E 012°38'0 0.5
2017-Jul-15 06:00N 55°43' E 012°38'3 5.8
2017-Jul-15 05:30N 55°41' E 012°41'510.1
2017-Jul-15 05:01N 55°36' E 012°42'4 7.2
2017-Jul-15 04:30N 55°32' E 012°43'612.6
2017-Jul-15 04:00N 55°26' E 012°42'713.0
2017-Jul-15 03:30N 55°20' E 012°41'612.0
2017-Jul-15 03:00N 55°17' E 012°50'612.1
2017-Jul-15 02:30N 55°16' E 013°01'612.4
2017-Jul-15 02:00N 55°15' E 013°11'612.3
2017-Jul-15 01:30N 55°15' E 013°22'612.5
2017-Jul-15 01:00N 55°14' E 013°33'612.6
2017-Jul-15 00:29N 55°14' E 013°45'612.8
2017-Jul-15 00:00N 55°13' E 013°56'612.8
2017-Jul-14 23:30N 55°13' E 014°07'611.9
2017-Jul-14 23:00N 55°13' E 014°17'612.7
2017-Jul-14 22:30N 55°18' E 014°24'612.8
2017-Jul-14 22:00N 55°23' E 014°31'612.4
2017-Jul-14 21:30N 55°27' E 014°39'612.9
2017-Jul-14 21:00N 55°31' E 014°48'613.0
2017-Jul-14 20:30N 55°34' E 014°58'613.0
2017-Jul-14 20:00N 55°37' E 015°08'713.2
2017-Jul-14 19:30N 55°40' E 015°19'713.2
2017-Jul-14 19:00N 55°44' E 015°29'713.2
2017-Jul-14 18:30N 55°47' E 015°39'613.0
2017-Jul-14 18:00N 55°50' E 015°49'713.1
2017-Jul-14 17:30N 55°53' E 015°59'613.0
2017-Jul-14 17:00N 55°57' E 016°09'612.9
2017-Jul-14 16:30N 55°60' E 016°19'713.1
2017-Jul-14 16:00N 56°03' E 016°29'713.0
2017-Jul-14 15:30N 56°07' E 016°39'612.9
2017-Jul-14 15:00N 56°11' E 016°48'712.9
2017-Jul-14 14:30N 56°15' E 016°58'612.9
2017-Jul-14 14:00N 56°19' E 017°07'613.0
2017-Jul-14 13:31N 56°23' E 017°16'20513.5
2017-Jul-13 22:20N 58°59' E 021°23'514.0
2017-Jul-13 22:00N 59°03' E 021°28'713.1
2017-Jul-13 21:30N 59°08' E 021°35'713.6
2017-Jul-13 21:01N 59°13' E 021°46'815.2
2017-Jul-13 20:31N 59°17' E 021°57'612.3
2017-Jul-13 20:00N 59°21' E 022°06'714.8
2017-Jul-13 19:30N 59°26' E 022°18'612.3
2017-Jul-13 19:00N 59°30' E 022°28'713.7
2017-Jul-13 18:30N 59°32' E 022°40'714.0
2017-Jul-13 18:01N 59°34' E 022°53'714.0
2017-Jul-13 17:30N 59°36' E 023°07'714.0
2017-Jul-13 17:01N 59°36' E 023°20'714.5
2017-Jul-13 16:30N 59°35' E 023°34'714.6
2017-Jul-13 16:00N 59°33' E 023°49'714.3
2017-Jul-13 15:31N 59°32' E 024°02'714.1
2017-Jul-13 15:01N 59°31' E 024°16'714.0
2017-Jul-13 14:31N 59°30' E 024°30'714.4
2017-Jul-13 14:00N 59°32' E 024°44'510.0
2017-Jul-13 13:31N 59°27' E 024°46'0 0.2
2017-Jul-13 12:59N 59°27' E 024°46'0 0.0
2017-Jul-13 12:29N 59°27' E 024°46'0 0.0
2017-Jul-13 11:59N 59°27' E 024°46'0 0.0
2017-Jul-13 11:29N 59°27' E 024°46'0 0.0
2017-Jul-13 10:59N 59°27' E 024°46'0 0.0
2017-Jul-13 10:29N 59°27' E 024°46'0 0.0
2017-Jul-13 09:59N 59°27' E 024°46'0 0.0
2017-Jul-13 09:29N 59°27' E 024°46'0 0.0
2017-Jul-13 08:59N 59°27' E 024°46'0 0.0
2017-Jul-13 08:28N 59°27' E 024°46'0 0.0
2017-Jul-13 07:58N 59°27' E 024°46'0 0.0
2017-Jul-13 07:30N 59°27' E 024°46'0 0.0
2017-Jul-13 06:59N 59°27' E 024°46'0 0.0
2017-Jul-13 06:29N 59°27' E 024°46'0 0.0
2017-Jul-13 06:00N 59°27' E 024°46'1 1.1
2017-Jul-13 05:30N 59°28' E 024°46'611.5
2017-Jul-13 05:00N 59°33' E 024°42'510.7
2017-Jul-13 04:30N 59°38' E 024°41'714.2
2017-Jul-13 04:01N 59°44' E 024°50'713.6
2017-Jul-13 03:30N 59°49' E 024°59'714.2
2017-Jul-13 03:00N 59°52' E 025°11'917.4
2017-Jul-13 02:31N 59°54' E 025°28'917.8
2017-Jul-13 02:00N 59°55' E 025°46'917.8
2017-Jul-13 01:30N 59°57' E 026°03'917.8
2017-Jul-13 01:00N 59°60' E 026°20'917.6
2017-Jul-13 00:31N 60°01' E 026°37'918.1
2017-Jul-13 00:01N 59°60' E 026°55'917.1
2017-Jul-12 23:30N 60°02' E 027°12'918.3
2017-Jul-12 23:00N 60°06' E 027°28'1019.3
2017-Jul-12 22:30N 60°12' E 027°44'917.6
2017-Jul-12 22:01N 60°10' E 028°01'816.7
2017-Jul-12 21:31N 60°08' E 028°17'816.1
2017-Jul-12 21:00N 60°03' E 028°31'917.4
2017-Jul-12 20:30N 60°03' E 028°48'816.6
2017-Jul-12 20:00N 60°03' E 029°05'918.4
2017-Jul-12 19:31N 60°02' E 029°23'510.0
2017-Jul-12 19:00N 60°01' E 029°33'  
Track history (hours):
 
Tides and Currents Weather Stations Pressure Air Temp Water Temp Dewpoint Dewpoint Depression Visibility Wind Speed Wind Dir Waves Ship Positions

MSC Magnifica

Last reported at 2017-Jul-22 18:30 UTC. Time now 2017-Jul-22 18:30 UTC.
Position N 55°25' E 012°39'.

Length 293 m; draft 8 m.

Type: Passenger vessel. MMSI: 352594000.

Date/timePositionNaut miles runAvg speedWind from/ knotsBaromVisibWave heightAir tempDewpointWater temp
2017-Jul-22 18:30N 55°25' E 012°39'4 8.4
2017-Jul-22 18:00N 55°29' E 012°41'4 8.1
2017-Jul-22 17:30N 55°33' E 012°42'3 6.8
2017-Jul-22 17:00N 55°37' E 012°42'4 7.3
2017-Jul-22 16:30N 55°40' E 012°41'3 6.9
2017-Jul-22 16:00N 55°43' E 012°38'0 0.0
2017-Jul-22 15:28N 55°43' E 012°38'0 0.0
2017-Jul-22 14:58N 55°43' E 012°38'0 0.0
2017-Jul-22 13:58N 55°43' E 012°38'0 0.0
2017-Jul-22 13:30N 55°43' E 012°38'0 0.0
2017-Jul-22 12:59N 55°43' E 012°38'0 0.0
2017-Jul-22 12:29N 55°43' E 012°38'0 0.0
2017-Jul-22 11:59N 55°43' E 012°38'0 0.0
2017-Jul-22 11:28N 55°43' E 012°38'0 0.0
2017-Jul-22 10:58N 55°43' E 012°38'0 0.0
2017-Jul-22 10:28N 55°43' E 012°38'0 0.0
2017-Jul-22 09:58N 55°43' E 012°38'0 0.0
2017-Jul-22 09:28N 55°43' E 012°38'0 0.0
2017-Jul-22 08:58N 55°43' E 012°38'0 0.0
2017-Jul-22 08:30N 55°43' E 012°38'0 0.0
2017-Jul-22 08:00N 55°43' E 012°38'0 0.0
2017-Jul-22 07:29N 55°43' E 012°38'0 0.0
2017-Jul-22 06:59N 55°43' E 012°38'0 0.1
2017-Jul-22 06:30N 55°43' E 012°38'3 6.2
2017-Jul-22 06:00N 55°46' E 012°41'815.3
2017-Jul-22 05:30N 55°53' E 012°44'815.1
2017-Jul-22 05:00N 56°00' E 012°40'714.7
2017-Jul-22 04:30N 56°06' E 012°33'815.2
2017-Jul-22 04:00N 56°11' E 012°21'815.5
2017-Jul-22 03:30N 56°15' E 012°10'2315.1
2017-Jul-22 01:59N 56°36' E 011°55'816.0
2017-Jul-22 01:30N 56°44' E 011°51'815.6
2017-Jul-22 01:00N 56°51' E 011°47'1116.0
2017-Jul-22 00:19N 57°02' E 011°40'516.1
2017-Jul-22 00:00N 57°06' E 011°37'815.8
2017-Jul-21 23:30N 57°14' E 011°32'815.7
2017-Jul-21 23:00N 57°21' E 011°27'815.6
2017-Jul-21 22:30N 57°28' E 011°21'816.0
2017-Jul-21 22:00N 57°34' E 011°11'815.8
2017-Jul-21 21:29N 57°40' E 010°59'815.6
2017-Jul-21 21:00N 57°45' E 010°49'815.2
2017-Jul-21 20:28N 57°47' E 010°34'816.5
2017-Jul-21 19:59N 57°46' E 010°20'816.3
2017-Jul-21 19:30N 57°46' E 010°05'8116.1
2017-Jul-21 14:30N 57°42' E 007°34'815.9
2017-Jul-21 14:00N 57°42' E 007°20'1016.0
2017-Jul-21 13:23N 57°42' E 007°01'615.9
2017-Jul-21 13:00N 57°42' E 006°50'816.0
2017-Jul-21 12:30N 57°43' E 006°35'916.2
2017-Jul-21 11:55N 57°48' E 006°21'716.1
2017-Jul-21 11:29N 57°53' E 006°11'816.3
2017-Jul-21 10:59N 57°58' E 005°60'816.3
2017-Jul-21 10:29N 58°04' E 005°48'2316.2
2017-Jul-21 09:04N 58°19' E 005°15'316.2
2017-Jul-21 08:52N 58°21' E 005°11'616.4
2017-Jul-21 08:30N 58°26' E 005°03'816.1
2017-Jul-21 08:00N 58°31' E 004°52'816.3
2017-Jul-21 07:30N 58°37' E 004°42'916.4
2017-Jul-21 06:59N 58°43' E 004°30'11915.7
2017-Jul-20 23:26N 60°42' E 004°20'716.5
2017-Jul-20 23:00N 60°48' E 004°25'814.8
2017-Jul-20 22:30N 60°52' E 004°38'815.1
2017-Jul-20 22:00N 60°59' E 004°45'918.9
2017-Jul-20 21:30N 61°04' E 005°01'917.6
2017-Jul-20 21:01N 61°05' E 005°19'917.0
2017-Jul-20 20:30N 61°06' E 005°36'918.2
2017-Jul-20 20:00N 61°09' E 005°54'917.9
2017-Jul-20 19:30N 61°07' E 006°13'917.3
2017-Jul-20 18:59N 61°07' E 006°31'714.8
2017-Jul-20 18:30N 61°10' E 006°44'917.2
2017-Jul-20 18:00N 61°05' E 006°59'816.9
2017-Jul-20 17:30N 60°58' E 007°06'611.2
2017-Jul-20 17:00N 60°52' E 007°08'1 1.3
2017-Jul-20 16:29N 60°52' E 007°07'0 0.0
2017-Jul-20 15:59N 60°52' E 007°07'0 0.0
2017-Jul-20 15:29N 60°52' E 007°07'0 0.0
2017-Jul-20 14:59N 60°52' E 007°07'0 0.0
2017-Jul-20 13:59N 60°52' E 007°07'0 0.0
2017-Jul-20 13:29N 60°52' E 007°07'0 0.0
2017-Jul-20 12:59N 60°52' E 007°07'0 0.0
2017-Jul-20 12:29N 60°52' E 007°07'0 0.0
2017-Jul-20 11:59N 60°52' E 007°07'0 0.0
2017-Jul-20 11:29N 60°52' E 007°07'0 0.0
2017-Jul-20 10:59N 60°52' E 007°07'0 0.0
2017-Jul-20 10:29N 60°52' E 007°07'0 0.0
2017-Jul-20 09:59N 60°52' E 007°07'0 0.0
2017-Jul-20 09:29N 60°52' E 007°07'0 0.0
2017-Jul-20 08:59N 60°52' E 007°07'0 0.0
2017-Jul-20 08:29N 60°52' E 007°07'0 0.0
2017-Jul-20 07:56N 60°52' E 007°07'0 0.0
2017-Jul-20 07:29N 60°52' E 007°07'0 0.0
2017-Jul-20 06:59N 60°52' E 007°07'0 0.0
2017-Jul-20 06:29N 60°52' E 007°07'0 0.0
2017-Jul-20 05:59N 60°52' E 007°07'1 1.3
2017-Jul-20 05:30N 60°52' E 007°08'510.9
2017-Jul-20 05:00N 60°58' E 007°06'816.5
2017-Jul-20 04:30N 61°05' E 006°60'815.9
2017-Jul-20 04:00N 61°10' E 006°46'713.2
2017-Jul-20 03:30N 61°08' E 006°33'815.8
2017-Jul-20 03:00N 61°07' E 006°18'816.6
2017-Jul-20 02:30N 61°08' E 006°01'916.6
2017-Jul-20 01:59N 61°07' E 005°43'817.0
2017-Jul-20 01:30N 61°04' E 005°27'816.1
2017-Jul-20 01:00N 61°06' E 005°11'815.8
2017-Jul-20 00:30N 61°12' E 005°00'714.1
2017-Jul-20 00:00N 61°15' E 004°47'917.4
2017-Jul-19 23:29N 61°15' E 004°28'1020.0
2017-Jul-19 23:00N 61°25' E 004°25'1020.0
2017-Jul-19 22:30N 61°35' E 004°26'1020.1
2017-Jul-19 22:00N 61°45' E 004°28'1020.3
2017-Jul-19 21:30N 61°54' E 004°36'1020.2
2017-Jul-19 21:00N 62°03' E 004°46'1020.2
2017-Jul-19 20:30N 62°12' E 004°58'1020.4
2017-Jul-19 20:00N 62°20' E 005°11'1020.3
2017-Jul-19 19:30N 62°26' E 005°28'1020.2
2017-Jul-19 18:59N 62°27' E 005°51'919.3
2017-Jul-19 18:30N 62°23' E 006°09'1020.2
2017-Jul-19 18:00N 62°25' E 006°31'1019.4
2017-Jul-19 17:29N 62°27' E 006°52'918.6
2017-Jul-19 17:00N 62°18' E 006°59'918.3
2017-Jul-19 16:30N 62°09' E 006°59'4 8.8
2017-Jul-19 16:00N 62°06' E 007°06'3 5.4
2017-Jul-19 15:30N 62°06' E 007°12'0 0.0
2017-Jul-19 14:59N 62°06' E 007°12'0 0.0
2017-Jul-19 14:29N 62°06' E 007°12'0 0.0
2017-Jul-19 13:59N 62°06' E 007°12'0 0.0
2017-Jul-19 13:29N 62°06' E 007°12'0 0.0
2017-Jul-19 13:00N 62°06' E 007°12'0 0.0
2017-Jul-19 12:30N 62°06' E 007°12'0 0.0
2017-Jul-19 12:00N 62°06' E 007°12'0 0.0
2017-Jul-19 11:29N 62°06' E 007°12'0 0.0
2017-Jul-19 11:00N 62°06' E 007°12'0 0.0
2017-Jul-19 10:30N 62°06' E 007°12'0 0.0
2017-Jul-19 10:00N 62°06' E 007°12'0 0.0
2017-Jul-19 09:30N 62°06' E 007°12'0 0.0
2017-Jul-19 09:00N 62°06' E 007°12'0 0.0
2017-Jul-19 08:28N 62°06' E 007°12'0 0.0
2017-Jul-19 07:59N 62°06' E 007°12'0 0.0
2017-Jul-19 07:30N 62°06' E 007°12'0 0.6
2017-Jul-19 07:00N 62°06' E 007°11'3 6.5
2017-Jul-19 06:30N 62°06' E 007°05'4 1.9
2017-Jul-19 04:12N 62°07' E 006°56'211.4
2017-Jul-19 03:59N 62°09' E 006°58'612.4
2017-Jul-19 03:30N 62°14' E 007°01'816.1
2017-Jul-19 03:00N 62°22' E 006°55'714.3
2017-Jul-19 02:30N 62°27' E 006°45'816.9
2017-Jul-19 02:00N 62°25' E 006°28'917.2
2017-Jul-19 01:30N 62°23' E 006°09'817.3
2017-Jul-19 01:00N 62°27' E 005°54'918.6
2017-Jul-19 00:30N 62°27' E 005°33'1019.4
2017-Jul-19 00:00N 62°22' E 005°16'1019.4
2017-Jul-18 23:30N 62°14' E 005°01'1019.2
2017-Jul-18 23:00N 62°06' E 004°51'1019.4
2017-Jul-18 22:30N 61°57' E 004°42'919.0
2017-Jul-18 22:00N 61°49' E 004°33'918.8
2017-Jul-18 21:30N 61°41' E 004°24'5416.9
2017-Jul-18 18:19N 60°47' E 004°18'619.2
2017-Jul-18 18:00N 60°46' E 004°31'918.4
2017-Jul-18 17:30N 60°42' E 004°48'815.7
2017-Jul-18 17:00N 60°35' E 004°54'918.2
2017-Jul-18 16:30N 60°27' E 005°02'612.7
2017-Jul-18 16:01N 60°24' E 005°13'3 4.8
2017-Jul-18 15:26N 60°23' E 005°18'0 0.0
2017-Jul-18 14:56N 60°23' E 005°18'0 0.0
2017-Jul-18 13:56N 60°23' E 005°18'0 0.0
2017-Jul-18 13:26N 60°23' E 005°18'0 0.0
2017-Jul-18 12:56N 60°23' E 005°18'0 0.0
2017-Jul-18 12:26N 60°23' E 005°18'0 0.0
2017-Jul-18 11:56N 60°23' E 005°18'0 0.0
2017-Jul-18 11:26N 60°23' E 005°18'0 0.0
2017-Jul-18 10:56N 60°23' E 005°18'0 0.0
2017-Jul-18 10:26N 60°23' E 005°18'0 0.0
2017-Jul-18 09:56N 60°23' E 005°18'0 0.0
2017-Jul-18 09:26N 60°23' E 005°18'0 0.0
2017-Jul-18 08:56N 60°23' E 005°18'0 0.0
2017-Jul-18 08:26N 60°23' E 005°18'0 0.0
2017-Jul-18 07:56N 60°23' E 005°18'0 0.3
2017-Jul-18 07:30N 60°24' E 005°18'4 7.7
2017-Jul-18 07:00N 60°23' E 005°10'815.6
2017-Jul-18 06:30N 60°29' E 004°59'917.6
2017-Jul-18 06:00N 60°37' E 004°53'816.1
2017-Jul-18 05:29N 60°44' E 004°44'612.6
2017-Jul-18 05:00N 60°42' E 004°32'816.2
2017-Jul-18 04:30N 60°35' E 004°25'11115.9
2017-Jul-17 21:33N 58°44' E 004°41'116.7
2017-Jul-17 21:30N 58°44' E 004°42'816.8
2017-Jul-17 21:00N 58°38' E 004°53'816.9
2017-Jul-17 20:30N 58°32' E 005°04'1017.0
2017-Jul-17 19:56N 58°25' E 005°17'717.0
2017-Jul-17 19:30N 58°20' E 005°27'817.1
2017-Jul-17 19:00N 58°14' E 005°39'917.3
2017-Jul-17 18:30N 58°08' E 005°51'917.5
2017-Jul-17 18:00N 58°02' E 006°04'917.3
2017-Jul-17 17:30N 57°57' E 006°16'917.3
2017-Jul-17 16:58N 57°51' E 006°29'816.6
2017-Jul-17 16:31N 57°47' E 006°41'816.4
2017-Jul-17 16:00N 57°46' E 006°56'917.1
2017-Jul-17 15:30N 57°45' E 007°13'917.5
2017-Jul-17 15:00N 57°45' E 007°29'918.1
2017-Jul-17 14:30N 57°45' E 007°46'917.9
2017-Jul-17 14:00N 57°45' E 008°03'7017.6
2017-Jul-17 10:02N 57°49' E 010°13'117.3
2017-Jul-17 09:59N 57°49' E 010°15'817.3
2017-Jul-17 09:29N 57°49' E 010°31'816.7
2017-Jul-17 09:00N 57°48' E 010°46'917.6
2017-Jul-17 08:31N 57°42' E 010°58'918.1
2017-Jul-17 07:59N 57°36' E 011°11'918.8
2017-Jul-17 07:30N 57°30' E 011°23'918.6
2017-Jul-17 07:00N 57°21' E 011°30'917.6
2017-Jul-17 06:31N 57°13' E 011°35'1018.4
2017-Jul-17 05:59N 57°04' E 011°42'11016.7
2017-Jul-16 23:24N 55°16' E 011°05'816.3
2017-Jul-16 22:55N 55°08' E 011°03'718.2
2017-Jul-16 22:30N 55°00' E 011°02'917.4
2017-Jul-16 22:00N 54°53' E 010°54'917.4
2017-Jul-16 21:30N 54°44' E 010°53'816.6
2017-Jul-16 21:00N 54°39' E 011°03'917.8
2017-Jul-16 20:30N 54°35' E 011°17'917.9
2017-Jul-16 20:00N 54°31' E 011°30'917.1
2017-Jul-16 19:30N 54°27' E 011°44'1416.5
2017-Jul-16 18:38N 54°18' E 012°03'7 0.5
2017-Jul-16 04:57N 54°11' E 012°06'1 2.5
2017-Jul-16 04:30N 54°10' E 012°06'5 9.4
2017-Jul-16 04:01N 54°14' E 012°03'610.7
2017-Jul-16 03:29N 54°19' E 011°59'510.7
2017-Jul-16 03:00N 54°24' E 011°55'4 8.0
2017-Jul-16 02:29N 54°26' E 012°01'6 8.7
2017-Jul-16 01:47N 54°28' E 012°11'2 8.5
2017-Jul-16 01:30N 54°31' E 012°12'4 8.6
2017-Jul-16 01:00N 54°35' E 012°13'12 8.7
2017-Jul-15 23:41N 54°44' E 012°25'2 8.8
2017-Jul-15 23:29N 54°46' E 012°27'9 8.8
2017-Jul-15 22:25N 54°53' E 012°37'4 8.3
2017-Jul-15 21:56N 54°57' E 012°39'4 8.7
2017-Jul-15 21:29N 55°01' E 012°39'4 8.6
2017-Jul-15 21:00N 55°05' E 012°39'4 8.6
2017-Jul-15 20:30N 55°09' E 012°38'4 8.4
2017-Jul-15 20:00N 55°13' E 012°38'4 8.4
2017-Jul-15 19:30N 55°17' E 012°38'4 8.6
2017-Jul-15 19:00N 55°22' E 012°38'4 8.5
2017-Jul-15 18:30N 55°26' E 012°39'4 8.6
2017-Jul-15 18:00N 55°30' E 012°42'4 7.9
2017-Jul-15 17:30N 55°34' E 012°42'4 7.4
2017-Jul-15 17:00N 55°38' E 012°42'510.4
2017-Jul-15 16:30N 55°43' E 012°41'2 4.0
2017-Jul-15 16:00N 55°43' E 012°38'0 0.0
2017-Jul-15 15:30N 55°43' E 012°38'0 0.0
2017-Jul-15 14:59N 55°43' E 012°38'0 0.0
2017-Jul-15 13:58N 55°43' E 012°38'0 0.0
2017-Jul-15 13:30N 55°43' E 012°38'0 0.0
2017-Jul-15 13:00N 55°43' E 012°38'0 0.0
2017-Jul-15 12:30N 55°43' E 012°38'0 0.0
2017-Jul-15 12:00N 55°43' E 012°38'0 0.0
2017-Jul-15 11:30N 55°43' E 012°38'0 0.0
2017-Jul-15 11:00N 55°43' E 012°38'0 0.0
2017-Jul-15 10:29N 55°43' E 012°38'0 0.0
2017-Jul-15 09:59N 55°43' E 012°38'0 0.0
2017-Jul-15 09:29N 55°43' E 012°38'0 0.0
2017-Jul-15 08:59N 55°43' E 012°38'0 0.0
2017-Jul-15 08:29N 55°43' E 012°38'0 0.0
2017-Jul-15 07:59N 55°43' E 012°38'0 0.0
2017-Jul-15 07:28N 55°43' E 012°38'0 0.0
2017-Jul-15 06:58N 55°43' E 012°38'0 0.0
2017-Jul-15 06:28N 55°43' E 012°38'0 0.5
2017-Jul-15 06:00N 55°43' E 012°38'3 5.8
2017-Jul-15 05:30N 55°41' E 012°41'510.1
2017-Jul-15 05:01N 55°36' E 012°42'4 7.2
2017-Jul-15 04:30N 55°32' E 012°43'612.6
2017-Jul-15 04:00N 55°26' E 012°42'713.0
2017-Jul-15 03:30N 55°20' E 012°41'612.0
2017-Jul-15 03:00N 55°17' E 012°50'612.1
2017-Jul-15 02:30N 55°16' E 013°01'612.4
2017-Jul-15 02:00N 55°15' E 013°11'612.3
2017-Jul-15 01:30N 55°15' E 013°22'612.5
2017-Jul-15 01:00N 55°14' E 013°33'612.6
2017-Jul-15 00:29N 55°14' E 013°45'612.8
2017-Jul-15 00:00N 55°13' E 013°56'612.8
2017-Jul-14 23:30N 55°13' E 014°07'611.9
2017-Jul-14 23:00N 55°13' E 014°17'612.7
2017-Jul-14 22:30N 55°18' E 014°24'612.8
2017-Jul-14 22:00N 55°23' E 014°31'612.4
2017-Jul-14 21:30N 55°27' E 014°39'612.9
2017-Jul-14 21:00N 55°31' E 014°48'613.0
2017-Jul-14 20:30N 55°34' E 014°58'613.0
2017-Jul-14 20:00N 55°37' E 015°08'713.2
2017-Jul-14 19:30N 55°40' E 015°19'713.2
2017-Jul-14 19:00N 55°44' E 015°29'713.2
2017-Jul-14 18:30N 55°47' E 015°39'613.0
2017-Jul-14 18:00N 55°50' E 015°49'713.1
2017-Jul-14 17:30N 55°53' E 015°59'613.0
2017-Jul-14 17:00N 55°57' E 016°09'612.9
2017-Jul-14 16:30N 55°60' E 016°19'713.1
2017-Jul-14 16:00N 56°03' E 016°29'713.0
2017-Jul-14 15:30N 56°07' E 016°39'612.9
2017-Jul-14 15:00N 56°11' E 016°48'712.9
2017-Jul-14 14:30N 56°15' E 016°58'612.9
2017-Jul-14 14:00N 56°19' E 017°07'613.0
2017-Jul-14 13:31N 56°23' E 017°16'20513.5
2017-Jul-13 22:20N 58°59' E 021°23'514.0
2017-Jul-13 22:00N 59°03' E 021°28'713.1
2017-Jul-13 21:30N 59°08' E 021°35'713.6
2017-Jul-13 21:01N 59°13' E 021°46'815.2
2017-Jul-13 20:31N 59°17' E 021°57'612.3
2017-Jul-13 20:00N 59°21' E 022°06'714.8
2017-Jul-13 19:30N 59°26' E 022°18'612.3
2017-Jul-13 19:00N 59°30' E 022°28'713.7
2017-Jul-13 18:30N 59°32' E 022°40'714.0
2017-Jul-13 18:01N 59°34' E 022°53'714.0
2017-Jul-13 17:30N 59°36' E 023°07'714.0
2017-Jul-13 17:01N 59°36' E 023°20'714.5
2017-Jul-13 16:30N 59°35' E 023°34'714.6
2017-Jul-13 16:00N 59°33' E 023°49'714.3
2017-Jul-13 15:31N 59°32' E 024°02'714.1
2017-Jul-13 15:01N 59°31' E 024°16'714.0
2017-Jul-13 14:31N 59°30' E 024°30'714.4
2017-Jul-13 14:00N 59°32' E 024°44'510.0
2017-Jul-13 13:31N 59°27' E 024°46'0 0.2
2017-Jul-13 12:59N 59°27' E 024°46'0 0.0
2017-Jul-13 12:29N 59°27' E 024°46'0 0.0
2017-Jul-13 11:59N 59°27' E 024°46'0 0.0
2017-Jul-13 11:29N 59°27' E 024°46'0 0.0
2017-Jul-13 10:59N 59°27' E 024°46'0 0.0
2017-Jul-13 10:29N 59°27' E 024°46'0 0.0
2017-Jul-13 09:59N 59°27' E 024°46'0 0.0
2017-Jul-13 09:29N 59°27' E 024°46'0 0.0
2017-Jul-13 08:59N 59°27' E 024°46'0 0.0
2017-Jul-13 08:28N 59°27' E 024°46'0 0.0
2017-Jul-13 07:58N 59°27' E 024°46'0 0.0
2017-Jul-13 07:30N 59°27' E 024°46'0 0.0
2017-Jul-13 06:59N 59°27' E 024°46'0 0.0
2017-Jul-13 06:29N 59°27' E 024°46'0 0.0
2017-Jul-13 06:00N 59°27' E 024°46'1 1.1
2017-Jul-13 05:30N 59°28' E 024°46'611.5
2017-Jul-13 05:00N 59°33' E 024°42'510.7
2017-Jul-13 04:30N 59°38' E 024°41'714.2
2017-Jul-13 04:01N 59°44' E 024°50'713.6
2017-Jul-13 03:30N 59°49' E 024°59'714.2
2017-Jul-13 03:00N 59°52' E 025°11'917.4
2017-Jul-13 02:31N 59°54' E 025°28'917.8
2017-Jul-13 02:00N 59°55' E 025°46'917.8
2017-Jul-13 01:30N 59°57' E 026°03'917.8
2017-Jul-13 01:00N 59°60' E 026°20'917.6
2017-Jul-13 00:31N 60°01' E 026°37'918.1
2017-Jul-13 00:01N 59°60' E 026°55'917.1
2017-Jul-12 23:30N 60°02' E 027°12'918.3
2017-Jul-12 23:00N 60°06' E 027°28'1019.3
2017-Jul-12 22:30N 60°12' E 027°44'917.6
2017-Jul-12 22:01N 60°10' E 028°01'816.7
2017-Jul-12 21:31N 60°08' E 028°17'816.1
2017-Jul-12 21:00N 60°03' E 028°31'917.4
2017-Jul-12 20:30N 60°03' E 028°48'816.6
2017-Jul-12 20:00N 60°03' E 029°05'918.4
2017-Jul-12 19:31N 60°02' E 029°23'510.0
2017-Jul-12 19:00N 60°01' E 029°33'  

Dump ship's entire track history